sensor_id;sensor_type;location;lat;lon;timestamp;temperature;humidity
20068;DHT22;10194;50.824;7.134;2023-05-14T00:01:58;9.40;99.90
20068;DHT22;10194;50.824;7.134;2023-05-14T00:04:24;9.40;99.90
20068;DHT22;10194;50.824;7.134;2023-05-14T00:06:50;9.30;99.90
20068;DHT22;10194;50.824;7.134;2023-05-14T00:09:16;9.30;99.90
20068;DHT22;10194;50.824;7.134;2023-05-14T00:11:41;9.20;99.90
20068;DHT22;10194;50.824;7.134;2023-05-14T00:14:07;9.20;99.90
20068;DHT22;10194;50.824;7.134;2023-05-14T00:16:33;9.20;99.90
20068;DHT22;10194;50.824;7.134;2023-05-14T00:18:58;9.20;99.90
20068;DHT22;10194;50.824;7.134;2023-05-14T00:21:24;9.20;99.90
20068;DHT22;10194;50.824;7.134;2023-05-14T00:23:50;9.10;99.90
20068;DHT22;10194;50.824;7.134;2023-05-14T00:26:16;9.00;99.90
20068;DHT22;10194;50.824;7.134;2023-05-14T00:28:41;9.00;99.90
20068;DHT22;10194;50.824;7.134;2023-05-14T00:31:07;9.00;99.90
20068;DHT22;10194;50.824;7.134;2023-05-14T00:33:33;9.10;99.90
20068;DHT22;10194;50.824;7.134;2023-05-14T00:35:59;9.10;99.90
20068;DHT22;10194;50.824;7.134;2023-05-14T00:38:25;9.10;99.90
20068;DHT22;10194;50.824;7.134;2023-05-14T00:40:52;8.90;99.90
20068;DHT22;10194;50.824;7.134;2023-05-14T00:43:19;8.90;99.90
20068;DHT22;10194;50.824;7.134;2023-05-14T00:45:49;9.00;99.90
20068;DHT22;10194;50.824;7.134;2023-05-14T00:48:16;8.90;99.90
20068;DHT22;10194;50.824;7.134;2023-05-14T00:50:43;8.90;99.90
20068;DHT22;10194;50.824;7.134;2023-05-14T00:53:09;8.80;99.90
20068;DHT22;10194;50.824;7.134;2023-05-14T00:55:41;8.80;99.90
20068;DHT22;10194;50.824;7.134;2023-05-14T00:58:09;8.80;99.90
20068;DHT22;10194;50.824;7.134;2023-05-14T01:00:38;8.80;99.90
20068;DHT22;10194;50.824;7.134;2023-05-14T01:03:05;8.70;99.90
20068;DHT22;10194;50.824;7.134;2023-05-14T01:06:08;8.70;99.90
20068;DHT22;10194;50.824;7.134;2023-05-14T01:11:21;8.60;99.90
20068;DHT22;10194;50.824;7.134;2023-05-14T01:16:36;8.50;99.90
20068;DHT22;10194;50.824;7.134;2023-05-14T01:19:05;8.60;99.90
20068;DHT22;10194;50.824;7.134;2023-05-14T01:21:38;8.60;99.90
20068;DHT22;10194;50.824;7.134;2023-05-14T01:24:06;8.60;99.90
20068;DHT22;10194;50.824;7.134;2023-05-14T01:26:32;8.70;99.90
20068;DHT22;10194;50.824;7.134;2023-05-14T01:29:03;8.60;99.90
20068;DHT22;10194;50.824;7.134;2023-05-14T01:31:38;8.60;99.90
20068;DHT22;10194;50.824;7.134;2023-05-14T01:34:06;8.40;99.90
20068;DHT22;10194;50.824;7.134;2023-05-14T01:36:34;8.40;99.90
20068;DHT22;10194;50.824;7.134;2023-05-14T01:39:00;8.30;99.90
20068;DHT22;10194;50.824;7.134;2023-05-14T01:41:28;8.30;99.90
20068;DHT22;10194;50.824;7.134;2023-05-14T01:43:56;8.40;99.90
20068;DHT22;10194;50.824;7.134;2023-05-14T01:46:22;8.40;99.90
20068;DHT22;10194;50.824;7.134;2023-05-14T01:48:49;8.40;99.90
20068;DHT22;10194;50.824;7.134;2023-05-14T01:51:15;8.30;99.90
20068;DHT22;10194;50.824;7.134;2023-05-14T01:53:41;8.30;99.90
20068;DHT22;10194;50.824;7.134;2023-05-14T01:56:06;8.20;99.90
20068;DHT22;10194;50.824;7.134;2023-05-14T01:58:32;8.20;99.90
20068;DHT22;10194;50.824;7.134;2023-05-14T02:00:58;8.10;99.90
20068;DHT22;10194;50.824;7.134;2023-05-14T02:03:24;8.10;99.90
20068;DHT22;10194;50.824;7.134;2023-05-14T02:05:49;8.10;99.90
20068;DHT22;10194;50.824;7.134;2023-05-14T02:08:15;8.00;99.90
20068;DHT22;10194;50.824;7.134;2023-05-14T02:10:41;8.00;99.90
20068;DHT22;10194;50.824;7.134;2023-05-14T02:13:07;7.90;99.90
20068;DHT22;10194;50.824;7.134;2023-05-14T02:15:33;7.90;99.90
20068;DHT22;10194;50.824;7.134;2023-05-14T02:17:59;8.00;99.90
20068;DHT22;10194;50.824;7.134;2023-05-14T02:20:25;8.00;99.90
20068;DHT22;10194;50.824;7.134;2023-05-14T02:22:51;8.20;99.90
20068;DHT22;10194;50.824;7.134;2023-05-14T02:25:17;8.30;99.90
20068;DHT22;10194;50.824;7.134;2023-05-14T02:27:43;8.40;99.90
20068;DHT22;10194;50.824;7.134;2023-05-14T02:30:09;8.40;99.90
20068;DHT22;10194;50.824;7.134;2023-05-14T02:32:35;8.50;99.90
20068;DHT22;10194;50.824;7.134;2023-05-14T02:35:01;8.50;99.90
20068;DHT22;10194;50.824;7.134;2023-05-14T02:37:27;8.40;99.90
20068;DHT22;10194;50.824;7.134;2023-05-14T02:39:53;8.20;99.90
20068;DHT22;10194;50.824;7.134;2023-05-14T02:42:18;8.20;99.90
20068;DHT22;10194;50.824;7.134;2023-05-14T02:44:44;8.20;99.90
20068;DHT22;10194;50.824;7.134;2023-05-14T02:47:10;8.30;99.90
20068;DHT22;10194;50.824;7.134;2023-05-14T02:49:36;8.40;99.90
20068;DHT22;10194;50.824;7.134;2023-05-14T02:52:02;8.40;99.90
20068;DHT22;10194;50.824;7.134;2023-05-14T02:54:27;8.30;99.90
20068;DHT22;10194;50.824;7.134;2023-05-14T02:56:53;8.10;99.90
20068;DHT22;10194;50.824;7.134;2023-05-14T02:59:20;8.00;99.90
20068;DHT22;10194;50.824;7.134;2023-05-14T03:01:46;8.00;99.90
20068;DHT22;10194;50.824;7.134;2023-05-14T03:04:11;7.90;99.90
20068;DHT22;10194;50.824;7.134;2023-05-14T03:06:37;7.90;99.90
20068;DHT22;10194;50.824;7.134;2023-05-14T03:09:03;7.90;99.90
20068;DHT22;10194;50.824;7.134;2023-05-14T03:11:28;7.80;99.90
20068;DHT22;10194;50.824;7.134;2023-05-14T03:13:54;7.80;99.90
20068;DHT22;10194;50.824;7.134;2023-05-14T03:16:20;7.80;99.90
20068;DHT22;10194;50.824;7.134;2023-05-14T03:18:45;7.90;99.90
20068;DHT22;10194;50.824;7.134;2023-05-14T03:21:11;7.70;99.90
20068;DHT22;10194;50.824;7.134;2023-05-14T03:23:37;7.80;99.90
20068;DHT22;10194;50.824;7.134;2023-05-14T03:26:03;7.70;99.90
20068;DHT22;10194;50.824;7.134;2023-05-14T03:28:29;7.60;99.90
20068;DHT22;10194;50.824;7.134;2023-05-14T03:30:55;7.60;99.90
20068;DHT22;10194;50.824;7.134;2023-05-14T03:33:21;7.70;99.90
20068;DHT22;10194;50.824;7.134;2023-05-14T03:35:47;7.80;99.90
20068;DHT22;10194;50.824;7.134;2023-05-14T03:38:13;8.00;99.90
20068;DHT22;10194;50.824;7.134;2023-05-14T03:40:39;8.00;99.90
20068;DHT22;10194;50.824;7.134;2023-05-14T03:43:04;7.80;99.90
20068;DHT22;10194;50.824;7.134;2023-05-14T03:45:31;7.80;99.90
20068;DHT22;10194;50.824;7.134;2023-05-14T03:47:57;7.70;99.90
20068;DHT22;10194;50.824;7.134;2023-05-14T03:50:23;7.70;99.90
20068;DHT22;10194;50.824;7.134;2023-05-14T03:52:50;7.70;99.90
20068;DHT22;10194;50.824;7.134;2023-05-14T03:55:18;7.60;99.90
20068;DHT22;10194;50.824;7.134;2023-05-14T03:57:44;7.50;99.90
20068;DHT22;10194;50.824;7.134;2023-05-14T04:00:10;7.50;99.90
20068;DHT22;10194;50.824;7.134;2023-05-14T04:02:36;7.50;99.90
20068;DHT22;10194;50.824;7.134;2023-05-14T04:05:02;7.60;99.90
20068;DHT22;10194;50.824;7.134;2023-05-14T04:07:28;7.70;99.90
20068;DHT22;10194;50.824;7.134;2023-05-14T04:09:54;7.70;99.90
20068;DHT22;10194;50.824;7.134;2023-05-14T04:12:20;7.70;99.90
20068;DHT22;10194;50.824;7.134;2023-05-14T04:14:46;7.60;99.90
20068;DHT22;10194;50.824;7.134;2023-05-14T04:17:12;7.60;99.90
20068;DHT22;10194;50.824;7.134;2023-05-14T04:19:37;7.60;99.90
20068;DHT22;10194;50.824;7.134;2023-05-14T04:22:05;7.50;99.90
20068;DHT22;10194;50.824;7.134;2023-05-14T04:24:30;7.60;99.90
20068;DHT22;10194;50.824;7.134;2023-05-14T04:26:56;7.70;99.90
20068;DHT22;10194;50.824;7.134;2023-05-14T04:29:22;7.70;99.90
20068;DHT22;10194;50.824;7.134;2023-05-14T04:31:51;7.70;99.90
20068;DHT22;10194;50.824;7.134;2023-05-14T04:34:16;7.70;99.90
20068;DHT22;10194;50.824;7.134;2023-05-14T04:36:42;7.70;99.90
20068;DHT22;10194;50.824;7.134;2023-05-14T04:39:08;7.70;99.90
20068;DHT22;10194;50.824;7.134;2023-05-14T04:41:34;7.80;99.90
20068;DHT22;10194;50.824;7.134;2023-05-14T04:44:02;7.90;99.90
20068;DHT22;10194;50.824;7.134;2023-05-14T04:46:28;7.90;99.90
20068;DHT22;10194;50.824;7.134;2023-05-14T04:48:54;7.90;99.90
20068;DHT22;10194;50.824;7.134;2023-05-14T04:51:21;7.90;99.90
20068;DHT22;10194;50.824;7.134;2023-05-14T04:53:47;7.90;99.90
20068;DHT22;10194;50.824;7.134;2023-05-14T04:56:13;8.00;99.90
20068;DHT22;10194;50.824;7.134;2023-05-14T04:58:39;8.10;99.90
20068;DHT22;10194;50.824;7.134;2023-05-14T05:01:04;8.20;99.90
20068;DHT22;10194;50.824;7.134;2023-05-14T05:03:30;8.30;99.90
20068;DHT22;10194;50.824;7.134;2023-05-14T05:05:56;8.50;99.90
20068;DHT22;10194;50.824;7.134;2023-05-14T05:08:22;8.50;99.90
20068;DHT22;10194;50.824;7.134;2023-05-14T05:10:48;8.50;99.90
20068;DHT22;10194;50.824;7.134;2023-05-14T05:13:14;8.50;99.90
20068;DHT22;10194;50.824;7.134;2023-05-14T05:15:41;8.70;99.90
20068;DHT22;10194;50.824;7.134;2023-05-14T05:18:08;8.70;99.90
20068;DHT22;10194;50.824;7.134;2023-05-14T05:20:33;8.90;99.90
20068;DHT22;10194;50.824;7.134;2023-05-14T05:22:59;9.00;99.90
20068;DHT22;10194;50.824;7.134;2023-05-14T05:25:26;9.20;99.90
20068;DHT22;10194;50.824;7.134;2023-05-14T05:27:52;9.20;99.90
20068;DHT22;10194;50.824;7.134;2023-05-14T05:30:17;9.30;99.90
20068;DHT22;10194;50.824;7.134;2023-05-14T05:32:43;9.30;99.90
20068;DHT22;10194;50.824;7.134;2023-05-14T05:35:09;9.40;99.90
20068;DHT22;10194;50.824;7.134;2023-05-14T05:37:35;9.50;99.90
20068;DHT22;10194;50.824;7.134;2023-05-14T05:40:01;9.50;99.90
20068;DHT22;10194;50.824;7.134;2023-05-14T05:42:28;9.60;99.90
20068;DHT22;10194;50.824;7.134;2023-05-14T05:44:54;9.70;99.90
20068;DHT22;10194;50.824;7.134;2023-05-14T05:47:20;9.70;99.90
20068;DHT22;10194;50.824;7.134;2023-05-14T05:49:46;9.90;99.90
20068;DHT22;10194;50.824;7.134;2023-05-14T05:52:12;9.90;99.90
20068;DHT22;10194;50.824;7.134;2023-05-14T05:54:37;9.90;99.90
20068;DHT22;10194;50.824;7.134;2023-05-14T05:57:04;9.90;99.90
20068;DHT22;10194;50.824;7.134;2023-05-14T05:59:30;10.00;99.90
20068;DHT22;10194;50.824;7.134;2023-05-14T06:01:56;10.20;99.90
20068;DHT22;10194;50.824;7.134;2023-05-14T06:04:21;10.40;99.90
20068;DHT22;10194;50.824;7.134;2023-05-14T06:06:47;10.60;99.90
20068;DHT22;10194;50.824;7.134;2023-05-14T06:09:13;10.70;99.90
20068;DHT22;10194;50.824;7.134;2023-05-14T06:11:39;10.80;99.90
20068;DHT22;10194;50.824;7.134;2023-05-14T06:14:04;10.90;99.90
20068;DHT22;10194;50.824;7.134;2023-05-14T06:16:30;11.00;99.90
20068;DHT22;10194;50.824;7.134;2023-05-14T06:18:56;11.20;99.90
20068;DHT22;10194;50.824;7.134;2023-05-14T06:21:22;11.30;99.90
20068;DHT22;10194;50.824;7.134;2023-05-14T06:23:47;11.50;99.90
20068;DHT22;10194;50.824;7.134;2023-05-14T06:26:13;11.60;99.90
20068;DHT22;10194;50.824;7.134;2023-05-14T06:28:39;11.70;99.90
20068;DHT22;10194;50.824;7.134;2023-05-14T06:31:05;11.90;99.90
20068;DHT22;10194;50.824;7.134;2023-05-14T06:33:30;12.20;99.90
20068;DHT22;10194;50.824;7.134;2023-05-14T06:36:01;12.30;99.90
20068;DHT22;10194;50.824;7.134;2023-05-14T06:38:28;12.40;99.90
20068;DHT22;10194;50.824;7.134;2023-05-14T06:40:54;12.80;99.90
20068;DHT22;10194;50.824;7.134;2023-05-14T06:43:20;13.10;99.90
20068;DHT22;10194;50.824;7.134;2023-05-14T06:45:50;13.20;99.90
20068;DHT22;10194;50.824;7.134;2023-05-14T06:48:16;13.30;99.90
20068;DHT22;10194;50.824;7.134;2023-05-14T06:50:43;13.30;99.90
20068;DHT22;10194;50.824;7.134;2023-05-14T06:53:09;13.60;99.90
20068;DHT22;10194;50.824;7.134;2023-05-14T06:55:35;13.70;99.90
20068;DHT22;10194;50.824;7.134;2023-05-14T06:58:01;14.30;99.90
20068;DHT22;10194;50.824;7.134;2023-05-14T07:00:27;14.80;99.90
20068;DHT22;10194;50.824;7.134;2023-05-14T07:02:53;15.40;99.90
20068;DHT22;10194;50.824;7.134;2023-05-14T07:05:18;15.80;99.90
20068;DHT22;10194;50.824;7.134;2023-05-14T07:07:44;16.40;99.90
20068;DHT22;10194;50.824;7.134;2023-05-14T07:10:10;17.10;99.90
20068;DHT22;10194;50.824;7.134;2023-05-14T07:12:36;17.50;99.90
20068;DHT22;10194;50.824;7.134;2023-05-14T07:15:02;17.50;99.90
20068;DHT22;10194;50.824;7.134;2023-05-14T07:17:28;18.00;99.90
20068;DHT22;10194;50.824;7.134;2023-05-14T07:19:53;18.70;99.90
20068;DHT22;10194;50.824;7.134;2023-05-14T07:22:22;19.00;99.90
20068;DHT22;10194;50.824;7.134;2023-05-14T07:24:48;18.40;99.90
20068;DHT22;10194;50.824;7.134;2023-05-14T07:27:14;18.70;99.90
20068;DHT22;10194;50.824;7.134;2023-05-14T07:29:41;19.10;99.90
20068;DHT22;10194;50.824;7.134;2023-05-14T07:32:08;18.70;99.90
20068;DHT22;10194;50.824;7.134;2023-05-14T07:34:33;19.20;99.90
20068;DHT22;10194;50.824;7.134;2023-05-14T07:37:00;19.40;99.90
20068;DHT22;10194;50.824;7.134;2023-05-14T07:39:26;19.40;99.90
20068;DHT22;10194;50.824;7.134;2023-05-14T07:41:51;19.50;99.90
20068;DHT22;10194;50.824;7.134;2023-05-14T07:44:19;18.80;99.90
20068;DHT22;10194;50.824;7.134;2023-05-14T07:46:45;18.50;99.90
20068;DHT22;10194;50.824;7.134;2023-05-14T07:49:11;18.30;99.90
20068;DHT22;10194;50.824;7.134;2023-05-14T07:51:37;18.30;99.90
20068;DHT22;10194;50.824;7.134;2023-05-14T07:54:03;18.30;99.90
20068;DHT22;10194;50.824;7.134;2023-05-14T07:56:29;18.10;99.90
20068;DHT22;10194;50.824;7.134;2023-05-14T07:58:55;18.50;99.90
20068;DHT22;10194;50.824;7.134;2023-05-14T08:01:21;18.70;99.90
20068;DHT22;10194;50.824;7.134;2023-05-14T08:03:47;18.80;99.90
20068;DHT22;10194;50.824;7.134;2023-05-14T08:06:13;18.70;99.90
20068;DHT22;10194;50.824;7.134;2023-05-14T08:08:39;19.10;99.90
20068;DHT22;10194;50.824;7.134;2023-05-14T08:11:05;19.40;99.90
20068;DHT22;10194;50.824;7.134;2023-05-14T08:13:31;19.50;99.90
20068;DHT22;10194;50.824;7.134;2023-05-14T08:15:57;18.90;99.90
20068;DHT22;10194;50.824;7.134;2023-05-14T08:18:22;18.70;99.90
20068;DHT22;10194;50.824;7.134;2023-05-14T08:20:48;18.80;99.90
20068;DHT22;10194;50.824;7.134;2023-05-14T08:23:14;18.60;99.90
20068;DHT22;10194;50.824;7.134;2023-05-14T08:25:40;18.90;99.90
20068;DHT22;10194;50.824;7.134;2023-05-14T08:28:06;18.70;99.90
20068;DHT22;10194;50.824;7.134;2023-05-14T08:30:32;18.60;99.90
20068;DHT22;10194;50.824;7.134;2023-05-14T08:32:58;18.70;99.90
20068;DHT22;10194;50.824;7.134;2023-05-14T08:35:24;18.90;99.90
20068;DHT22;10194;50.824;7.134;2023-05-14T08:37:50;18.90;99.90
20068;DHT22;10194;50.824;7.134;2023-05-14T08:40:17;18.90;99.90
20068;DHT22;10194;50.824;7.134;2023-05-14T08:42:43;18.60;99.90
20068;DHT22;10194;50.824;7.134;2023-05-14T08:47:35;18.80;99.90
20068;DHT22;10194;50.824;7.134;2023-05-14T08:50:03;18.80;99.90
20068;DHT22;10194;50.824;7.134;2023-05-14T08:52:31;19.10;99.90
20068;DHT22;10194;50.824;7.134;2023-05-14T08:55:00;19.20;99.90
20068;DHT22;10194;50.824;7.134;2023-05-14T08:57:30;19.70;99.90
20068;DHT22;10194;50.824;7.134;2023-05-14T08:59:56;19.80;99.90
20068;DHT22;10194;50.824;7.134;2023-05-14T09:02:26;19.90;99.90
20068;DHT22;10194;50.824;7.134;2023-05-14T09:04:57;20.00;99.90
20068;DHT22;10194;50.824;7.134;2023-05-14T09:07:24;20.00;99.90
20068;DHT22;10194;50.824;7.134;2023-05-14T09:09:51;20.40;99.90
20068;DHT22;10194;50.824;7.134;2023-05-14T09:12:17;20.40;99.90
20068;DHT22;10194;50.824;7.134;2023-05-14T09:14:43;20.70;99.90
20068;DHT22;10194;50.824;7.134;2023-05-14T09:17:09;20.90;99.90
20068;DHT22;10194;50.824;7.134;2023-05-14T09:19:39;21.00;99.90
20068;DHT22;10194;50.824;7.134;2023-05-14T09:22:08;21.20;99.90
20068;DHT22;10194;50.824;7.134;2023-05-14T09:24:34;21.10;99.90
20068;DHT22;10194;50.824;7.134;2023-05-14T09:27:00;20.90;99.90
20068;DHT22;10194;50.824;7.134;2023-05-14T09:29:28;20.80;99.90
20068;DHT22;10194;50.824;7.134;2023-05-14T09:31:55;20.90;99.90
20068;DHT22;10194;50.824;7.134;2023-05-14T09:34:29;21.00;99.90
20068;DHT22;10194;50.824;7.134;2023-05-14T09:37:00;21.00;99.90
20068;DHT22;10194;50.824;7.134;2023-05-14T09:39:28;21.20;99.90
20068;DHT22;10194;50.824;7.134;2023-05-14T09:41:55;21.40;99.90
20068;DHT22;10194;50.824;7.134;2023-05-14T09:44:22;21.50;99.90
20068;DHT22;10194;50.824;7.134;2023-05-14T09:46:49;21.50;99.90
20068;DHT22;10194;50.824;7.134;2023-05-14T09:49:16;21.20;99.90
20068;DHT22;10194;50.824;7.134;2023-05-14T09:51:42;20.30;99.90
20068;DHT22;10194;50.824;7.134;2023-05-14T09:54:08;19.80;99.90
20068;DHT22;10194;50.824;7.134;2023-05-14T09:56:35;19.50;99.90
20068;DHT22;10194;50.824;7.134;2023-05-14T09:59:02;19.70;99.90
20068;DHT22;10194;50.824;7.134;2023-05-14T10:01:29;19.90;99.90
20068;DHT22;10194;50.824;7.134;2023-05-14T10:03:56;20.10;99.90
20068;DHT22;10194;50.824;7.134;2023-05-14T10:06:27;20.40;99.90
20068;DHT22;10194;50.824;7.134;2023-05-14T10:09:00;20.50;99.90
20068;DHT22;10194;50.824;7.134;2023-05-14T10:11:31;20.50;99.90
20068;DHT22;10194;50.824;7.134;2023-05-14T10:14:10;21.10;99.90
20068;DHT22;10194;50.824;7.134;2023-05-14T10:16:46;21.00;99.90
20068;DHT22;10194;50.824;7.134;2023-05-14T10:19:15;20.40;99.90
20068;DHT22;10194;50.824;7.134;2023-05-14T10:21:44;20.10;99.90
20068;DHT22;10194;50.824;7.134;2023-05-14T10:24:20;20.30;99.90
20068;DHT22;10194;50.824;7.134;2023-05-14T10:26:46;20.70;99.90
20068;DHT22;10194;50.824;7.134;2023-05-14T10:29:13;21.10;99.90
20068;DHT22;10194;50.824;7.134;2023-05-14T10:31:51;21.50;99.90
20068;DHT22;10194;50.824;7.134;2023-05-14T10:34:34;21.90;99.90
20068;DHT22;10194;50.824;7.134;2023-05-14T10:37:12;21.80;99.90
20068;DHT22;10194;50.824;7.134;2023-05-14T10:39:41;21.70;99.90
20068;DHT22;10194;50.824;7.134;2023-05-14T10:42:10;22.10;99.90
20068;DHT22;10194;50.824;7.134;2023-05-14T10:44:59;22.50;99.90
20068;DHT22;10194;50.824;7.134;2023-05-14T10:47:32;22.00;99.90
20068;DHT22;10194;50.824;7.134;2023-05-14T10:50:01;21.80;99.90
20068;DHT22;10194;50.824;7.134;2023-05-14T10:52:29;21.80;99.90
20068;DHT22;10194;50.824;7.134;2023-05-14T10:54:56;22.20;99.90
20068;DHT22;10194;50.824;7.134;2023-05-14T10:57:28;21.90;99.90
20068;DHT22;10194;50.824;7.134;2023-05-14T10:59:56;21.40;99.90
20068;DHT22;10194;50.824;7.134;2023-05-14T11:02:27;21.00;99.90
20068;DHT22;10194;50.824;7.134;2023-05-14T11:05:02;20.40;99.90
20068;DHT22;10194;50.824;7.134;2023-05-14T11:07:37;19.80;99.90
20068;DHT22;10194;50.824;7.134;2023-05-14T11:10:05;19.70;99.90
20068;DHT22;10194;50.824;7.134;2023-05-14T11:12:39;19.60;99.90
20068;DHT22;10194;50.824;7.134;2023-05-14T11:15:08;19.40;99.90
20068;DHT22;10194;50.824;7.134;2023-05-14T11:17:37;19.40;99.90
20068;DHT22;10194;50.824;7.134;2023-05-14T11:20:05;19.40;99.90
20068;DHT22;10194;50.824;7.134;2023-05-14T11:22:32;19.40;99.90
20068;DHT22;10194;50.824;7.134;2023-05-14T11:24:58;19.30;99.90
20068;DHT22;10194;50.824;7.134;2023-05-14T11:27:25;19.30;99.90
20068;DHT22;10194;50.824;7.134;2023-05-14T11:29:51;19.30;99.90
20068;DHT22;10194;50.824;7.134;2023-05-14T11:32:17;19.30;99.90
20068;DHT22;10194;50.824;7.134;2023-05-14T11:34:44;19.50;99.90
20068;DHT22;10194;50.824;7.134;2023-05-14T11:37:12;19.70;99.90
20068;DHT22;10194;50.824;7.134;2023-05-14T11:39:42;19.70;99.90
20068;DHT22;10194;50.824;7.134;2023-05-14T11:42:12;20.00;99.90
20068;DHT22;10194;50.824;7.134;2023-05-14T11:44:39;20.40;99.90
20068;DHT22;10194;50.824;7.134;2023-05-14T11:47:06;20.20;99.90
20068;DHT22;10194;50.824;7.134;2023-05-14T11:49:32;20.10;99.90
20068;DHT22;10194;50.824;7.134;2023-05-14T11:52:01;20.00;99.90
20068;DHT22;10194;50.824;7.134;2023-05-14T11:54:29;19.90;99.90
20068;DHT22;10194;50.824;7.134;2023-05-14T11:56:56;19.90;99.90
20068;DHT22;10194;50.824;7.134;2023-05-14T11:59:27;19.90;99.90
20068;DHT22;10194;50.824;7.134;2023-05-14T12:01:56;19.80;99.90
20068;DHT22;10194;50.824;7.134;2023-05-14T12:04:22;20.00;99.90
20068;DHT22;10194;50.824;7.134;2023-05-14T12:06:49;20.10;99.90
20068;DHT22;10194;50.824;7.134;2023-05-14T12:09:19;20.30;99.90
20068;DHT22;10194;50.824;7.134;2023-05-14T12:11:46;20.30;99.90
20068;DHT22;10194;50.824;7.134;2023-05-14T12:14:18;20.50;99.90
20068;DHT22;10194;50.824;7.134;2023-05-14T12:16:45;20.60;99.90
20068;DHT22;10194;50.824;7.134;2023-05-14T12:19:14;20.70;99.90
20068;DHT22;10194;50.824;7.134;2023-05-14T12:21:42;20.70;99.90
20068;DHT22;10194;50.824;7.134;2023-05-14T12:24:17;20.90;99.90
20068;DHT22;10194;50.824;7.134;2023-05-14T12:26:47;21.30;99.90
20068;DHT22;10194;50.824;7.134;2023-05-14T12:29:15;21.60;99.90
20068;DHT22;10194;50.824;7.134;2023-05-14T12:31:45;21.70;99.50
20068;DHT22;10194;50.824;7.134;2023-05-14T12:34:12;21.80;99.90
20068;DHT22;10194;50.824;7.134;2023-05-14T12:36:38;21.60;99.40
20068;DHT22;10194;50.824;7.134;2023-05-14T12:39:04;21.40;99.00
20068;DHT22;10194;50.824;7.134;2023-05-14T12:41:31;20.90;98.10
20068;DHT22;10194;50.824;7.134;2023-05-14T12:43:57;20.40;99.90
20068;DHT22;10194;50.824;7.134;2023-05-14T12:46:25;20.50;99.90
20068;DHT22;10194;50.824;7.134;2023-05-14T12:48:55;20.80;99.90
20068;DHT22;10194;50.824;7.134;2023-05-14T12:51:21;21.00;99.90
20068;DHT22;10194;50.824;7.134;2023-05-14T12:53:47;21.50;99.90
20068;DHT22;10194;50.824;7.134;2023-05-14T12:56:13;21.70;99.90
20068;DHT22;10194;50.824;7.134;2023-05-14T12:58:39;21.80;99.90
20068;DHT22;10194;50.824;7.134;2023-05-14T13:01:05;21.80;99.90
20068;DHT22;10194;50.824;7.134;2023-05-14T13:03:31;21.90;99.90
20068;DHT22;10194;50.824;7.134;2023-05-14T13:05:58;21.90;99.90
20068;DHT22;10194;50.824;7.134;2023-05-14T13:08:24;21.80;96.00
20068;DHT22;10194;50.824;7.134;2023-05-14T13:10:53;21.60;96.70
20068;DHT22;10194;50.824;7.134;2023-05-14T13:13:20;21.50;96.40
20068;DHT22;10194;50.824;7.134;2023-05-14T13:15:46;21.40;96.30
20068;DHT22;10194;50.824;7.134;2023-05-14T13:18:16;21.50;94.70
20068;DHT22;10194;50.824;7.134;2023-05-14T13:20:42;21.40;99.50
20068;DHT22;10194;50.824;7.134;2023-05-14T13:23:07;21.40;95.50
20068;DHT22;10194;50.824;7.134;2023-05-14T13:25:34;21.30;94.50
20068;DHT22;10194;50.824;7.134;2023-05-14T13:28:00;21.20;91.70
20068;DHT22;10194;50.824;7.134;2023-05-14T13:30:26;21.10;91.10
20068;DHT22;10194;50.824;7.134;2023-05-14T13:32:51;21.20;91.40
20068;DHT22;10194;50.824;7.134;2023-05-14T13:35:17;21.20;93.20
20068;DHT22;10194;50.824;7.134;2023-05-14T13:37:43;21.30;91.80
20068;DHT22;10194;50.824;7.134;2023-05-14T13:40:09;21.10;92.80
20068;DHT22;10194;50.824;7.134;2023-05-14T13:42:36;21.10;91.00
20068;DHT22;10194;50.824;7.134;2023-05-14T13:45:04;21.00;91.40
20068;DHT22;10194;50.824;7.134;2023-05-14T13:47:30;21.00;92.20
20068;DHT22;10194;50.824;7.134;2023-05-14T13:49:57;21.10;91.70
20068;DHT22;10194;50.824;7.134;2023-05-14T13:52:23;21.30;91.10
20068;DHT22;10194;50.824;7.134;2023-05-14T13:54:48;21.30;92.20
20068;DHT22;10194;50.824;7.134;2023-05-14T13:57:14;21.30;92.00
20068;DHT22;10194;50.824;7.134;2023-05-14T13:59:40;21.30;85.90
20068;DHT22;10194;50.824;7.134;2023-05-14T14:02:07;21.30;89.80
20068;DHT22;10194;50.824;7.134;2023-05-14T14:04:33;21.40;91.30
20068;DHT22;10194;50.824;7.134;2023-05-14T14:06:59;21.30;90.10
20068;DHT22;10194;50.824;7.134;2023-05-14T14:09:24;21.10;91.60
20068;DHT22;10194;50.824;7.134;2023-05-14T14:11:50;20.90;92.20
20068;DHT22;10194;50.824;7.134;2023-05-14T14:14:16;20.80;92.60
20068;DHT22;10194;50.824;7.134;2023-05-14T14:16:43;20.70;90.70
20068;DHT22;10194;50.824;7.134;2023-05-14T14:19:10;20.60;91.20
20068;DHT22;10194;50.824;7.134;2023-05-14T14:21:36;20.50;93.90
20068;DHT22;10194;50.824;7.134;2023-05-14T14:24:04;20.50;93.90
20068;DHT22;10194;50.824;7.134;2023-05-14T14:26:30;20.50;93.60
20068;DHT22;10194;50.824;7.134;2023-05-14T14:28:56;20.70;89.40
20068;DHT22;10194;50.824;7.134;2023-05-14T14:31:22;20.90;83.90
20068;DHT22;10194;50.824;7.134;2023-05-14T14:33:48;21.00;79.30
20068;DHT22;10194;50.824;7.134;2023-05-14T14:36:14;21.10;83.30
20068;DHT22;10194;50.824;7.134;2023-05-14T14:38:40;21.30;81.50
20068;DHT22;10194;50.824;7.134;2023-05-14T14:41:05;21.40;85.80
20068;DHT22;10194;50.824;7.134;2023-05-14T14:43:33;21.40;82.30
20068;DHT22;10194;50.824;7.134;2023-05-14T14:45:58;21.30;80.60
20068;DHT22;10194;50.824;7.134;2023-05-14T14:48:35;21.20;81.60
20068;DHT22;10194;50.824;7.134;2023-05-14T14:51:04;21.20;82.30
20068;DHT22;10194;50.824;7.134;2023-05-14T14:53:32;21.20;84.20
20068;DHT22;10194;50.824;7.134;2023-05-14T14:55:58;21.30;90.00
20068;DHT22;10194;50.824;7.134;2023-05-14T14:58:27;21.50;86.30
20068;DHT22;10194;50.824;7.134;2023-05-14T15:00:54;21.40;86.60
20068;DHT22;10194;50.824;7.134;2023-05-14T15:03:22;21.50;88.40
20068;DHT22;10194;50.824;7.134;2023-05-14T15:05:48;21.60;82.20
20068;DHT22;10194;50.824;7.134;2023-05-14T15:08:14;21.60;79.70
20068;DHT22;10194;50.824;7.134;2023-05-14T15:10:40;21.70;80.30
20068;DHT22;10194;50.824;7.134;2023-05-14T15:13:07;21.70;73.50
20068;DHT22;10194;50.824;7.134;2023-05-14T15:15:34;21.90;79.20
20068;DHT22;10194;50.824;7.134;2023-05-14T15:18:01;21.90;75.80
20068;DHT22;10194;50.824;7.134;2023-05-14T15:20:27;21.70;73.90
20068;DHT22;10194;50.824;7.134;2023-05-14T15:22:53;21.80;76.40
20068;DHT22;10194;50.824;7.134;2023-05-14T15:25:20;22.00;76.70
20068;DHT22;10194;50.824;7.134;2023-05-14T15:27:46;21.80;79.50
20068;DHT22;10194;50.824;7.134;2023-05-14T15:30:13;21.40;82.80
20068;DHT22;10194;50.824;7.134;2023-05-14T15:32:40;21.30;85.30
20068;DHT22;10194;50.824;7.134;2023-05-14T15:35:06;21.20;87.90
20068;DHT22;10194;50.824;7.134;2023-05-14T15:37:41;21.10;87.10
20068;DHT22;10194;50.824;7.134;2023-05-14T15:40:08;20.80;88.10
20068;DHT22;10194;50.824;7.134;2023-05-14T15:42:39;20.70;90.00
20068;DHT22;10194;50.824;7.134;2023-05-14T15:45:07;20.70;90.10